Time;durP1;ratioP1;P1;durP2;ratioP2;P2;SDS_P1;SDS_P2;PMS_P1;PMS_P2;Temp;Humidity;BMP_temperature;BMP_pressure;BME280_temperature;BME280_humidity;BME280_pressure;Samples;Min_cycle;Max_cycle;Signal;HPM_P1;HPM_P2
2023/05/12 00:00:48;;;;;;;7.10;3.57;;;;;;;-145.69;100.00;52594.91;5013797;28;20255;-75
2023/05/12 00:03:14;;;;;;;5.50;3.50;;;;;;;-145.69;100.00;52600.84;5014604;28;20208;-75
2023/05/12 00:05:41;;;;;;;5.73;4.00;;;;;;;-145.69;100.00;52586.97;5018334;28;20192;-75
2023/05/12 00:08:07;;;;;;;4.90;3.30;;;;;;;-145.69;100.00;52563.22;5018222;28;20225;-75
2023/05/12 00:10:35;;;;;;;6.97;3.63;;;;;;;-145.69;100.00;52571.13;5014722;28;20204;-75
2023/05/12 00:13:02;;;;;;;7.53;3.73;;;;;;;-145.69;100.00;52602.81;5025939;28;20196;-75
2023/05/12 00:15:30;;;;;;;5.03;3.33;;;;;;;-145.69;100.00;52598.84;5034354;28;20207;-75
2023/05/12 00:17:56;;;;;;;7.23;3.47;;;;;;;-145.69;100.00;52571.13;5033797;28;20658;-75
2023/05/12 00:20:23;;;;;;;8.57;3.97;;;;;;;-145.69;100.00;52585.00;5033980;28;20548;-75
2023/05/12 00:22:49;;;;;;;9.77;4.37;;;;;;;-145.69;100.00;52598.84;5023992;28;20193;-74
2023/05/12 00:25:16;;;;;;;11.43;4.10;;;;;;;-145.69;100.00;52618.66;5017763;28;20193;-74
2023/05/12 00:27:42;;;;;;;6.43;4.13;;;;;;;-145.69;100.00;52616.69;5014354;28;20212;-75
2023/05/12 00:30:10;;;;;;;8.30;4.30;;;;;;;-145.69;100.00;52594.91;5013903;28;20215;-75
2023/05/12 00:32:38;;;;;;;6.93;4.10;;;;;;;-145.69;100.00;52583.00;5012175;28;20201;-75
2023/05/12 00:35:05;;;;;;;7.73;3.67;;;;;;;-145.69;100.00;52571.13;5026984;28;20196;-75
2023/05/12 00:37:34;;;;;;;9.10;4.43;;;;;;;-145.69;100.00;52610.75;5033623;28;20228;-75
2023/05/12 00:40:00;;;;;;;5.93;4.00;;;;;;;-145.69;100.00;52571.13;5033878;28;20204;-75
2023/05/12 00:42:27;;;;;;;12.13;4.43;;;;;;;-145.69;100.00;52563.22;5033877;28;20208;-75
2023/05/12 00:44:53;;;;;;;7.63;4.47;;;;;;;-145.69;100.00;52590.94;5033639;28;20230;-75
2023/05/12 00:47:21;;;;;;;8.57;5.03;;;;;;;-145.69;100.00;52585.00;5037424;28;20756;-74
2023/05/12 00:49:49;;;;;;;8.77;4.57;;;;;;;-145.69;100.00;52579.06;5053344;28;20199;-75
2023/05/12 00:52:15;;;;;;;9.23;4.93;;;;;;;-145.69;100.00;52573.13;5053588;28;20203;-75
2023/05/12 00:54:43;;;;;;;10.03;4.70;;;;;;;-145.69;100.00;52565.19;5052963;28;20218;-75
2023/05/12 00:57:10;;;;;;;8.00;4.77;;;;;;;-145.69;100.00;52585.00;5053368;28;20702;-74
2023/05/12 00:59:36;;;;;;;7.93;4.03;;;;;;;-145.69;100.00;52586.97;5070679;28;20201;-75
2023/05/12 01:02:03;;;;;;;6.63;4.10;;;;;;;-145.69;100.00;52586.97;5057291;28;20290;-76
2023/05/12 01:04:31;;;;;;;6.10;3.67;;;;;;;-145.69;100.00;52602.81;5073071;28;20203;-74
2023/05/12 01:07:08;;;;;;;5.90;3.60;;;;;;;-145.69;100.00;52588.97;5072905;28;20195;-75
2023/05/12 01:09:35;;;;;;;14.03;4.60;;;;;;;-145.69;100.00;52555.28;5072681;28;20210;-75
2023/05/12 01:12:01;;;;;;;8.30;4.70;;;;;;;-145.69;100.00;52596.88;5052577;28;20210;-75
2023/05/12 01:14:28;;;;;;;8.50;4.47;;;;;;;-145.69;100.00;52614.72;5053171;28;20203;-74
2023/05/12 01:17:00;;;;;;;8.53;4.60;;;;;;;-145.69;100.00;52632.53;5053643;28;20544;-75
2023/05/12 01:19:38;;;;;;;8.80;4.63;;;;;;;-145.69;100.00;52539.44;5053204;28;20207;-75
2023/05/12 01:22:06;;;;;;;20.10;6.83;;;;;;;-145.69;100.00;52600.84;5054116;28;20194;-75
2023/05/12 01:24:36;;;;;;;8.73;4.47;;;;;;;-145.69;100.00;52600.84;5052959;28;20199;-74
2023/05/12 01:27:05;;;;;;;6.80;4.23;;;;;;;-145.69;100.00;52577.06;5071672;28;20209;-76
2023/05/12 01:29:32;;;;;;;6.27;4.40;;;;;;;-145.69;100.00;52618.66;5072679;28;20571;-75
2023/05/12 01:31:59;;;;;;;8.30;4.17;;;;;;;-145.69;100.00;52594.91;5072934;28;20199;-74
2023/05/12 01:34:26;;;;;;;8.90;4.03;;;;;;;-145.69;100.00;52648.38;5065858;28;20191;-75
2023/05/12 01:36:52;;;;;;;7.57;4.00;;;;;;;-145.69;100.00;52590.94;5052811;28;20209;-74
2023/05/12 01:39:18;;;;;;;7.15;4.43;;;;;;;-145.69;100.00;52608.75;5052145;28;20937;-74
2023/05/12 01:41:45;;;;;;;7.87;4.60;;;;;;;-145.69;100.00;52598.84;5052595;28;20269;-75
2023/05/12 01:44:13;;;;;;;7.57;4.60;;;;;;;-145.69;100.00;52636.50;5052652;28;20677;-75
2023/05/12 01:46:39;;;;;;;7.63;4.80;;;;;;;-145.69;100.00;52636.50;5058655;28;20234;-75
2023/05/12 01:49:05;;;;;;;6.80;3.87;;;;;;;-145.69;100.00;52614.72;5072786;28;20202;-75
2023/05/12 01:51:32;;;;;;;7.80;4.67;;;;;;;-145.69;100.00;52630.53;5072639;28;20207;-75
2023/05/12 01:53:58;;;;;;;13.80;4.13;;;;;;;-145.69;100.00;52585.00;5072815;28;20206;-75
2023/05/12 01:56:25;;;;;;;8.10;4.70;;;;;;;-145.69;100.00;52604.81;5055487;28;20555;-75
2023/05/12 01:58:51;;;;;;;11.33;5.00;;;;;;;-145.69;100.00;52626.59;5050604;28;20308;-75
2023/05/12 02:01:19;;;;;;;9.03;5.10;;;;;;;-145.69;100.00;52583.00;5072482;28;20199;-75
2023/05/12 02:03:46;;;;;;;16.80;5.43;;;;;;;-145.69;100.00;52628.56;5072519;28;20654;-75
2023/05/12 02:06:12;;;;;;;10.00;5.17;;;;;;;-145.69;100.00;52608.75;5072482;28;20211;-74
2023/05/12 02:08:39;;;;;;;12.13;5.37;;;;;;;-145.69;100.00;52612.72;5058051;28;20203;-75
2023/05/12 02:11:06;;;;;;;12.43;5.67;;;;;;;-145.69;100.00;52575.09;5054857;28;20657;-75
2023/05/12 02:13:33;;;;;;;19.27;5.30;;;;;;;-145.69;100.00;52636.50;5072622;28;20222;-75
2023/05/12 02:15:59;;;;;;;11.87;5.03;;;;;;;-145.69;100.00;52594.91;5055992;28;20258;-75
2023/05/12 02:18:27;;;;;;;11.10;5.03;;;;;;;-145.69;100.00;52622.63;5052500;28;20625;-75
2023/05/12 02:20:53;;;;;;;11.67;4.93;;;;;;;-145.69;100.00;52590.94;5053245;28;20198;-74
2023/05/12 02:23:20;;;;;;;12.07;5.17;;;;;;;-145.69;100.00;52583.00;5060784;28;20194;-75
2023/05/12 02:25:46;;;;;;;10.97;5.37;;;;;;;-145.69;100.00;52598.84;5076333;28;20203;-74
2023/05/12 02:28:13;;;;;;;15.00;5.80;;;;;;;-145.69;100.00;52590.94;5076207;28;20210;-74
2023/05/12 02:30:44;;;;;;;11.20;5.67;;;;;;;-145.69;100.00;52598.84;5076226;28;20608;-75
2023/05/12 02:33:11;;;;;;;10.67;5.37;;;;;;;-145.69;100.00;52585.00;5074174;28;20206;-75
2023/05/12 02:35:39;;;;;;;7.07;4.53;;;;;;;-145.69;100.00;52608.75;5076115;28;20199;-74
2023/05/12 02:38:07;;;;;;;12.20;4.87;;;;;;;-145.69;100.00;52608.75;5075670;28;20222;-74
2023/05/12 02:40:34;;;;;;;12.93;4.30;;;;;;;-145.69;100.00;52608.75;5065349;28;20196;-75
2023/05/12 02:43:00;;;;;;;7.73;3.90;;;;;;;-145.69;100.00;52592.91;5055978;28;20206;-75
2023/05/12 02:45:27;;;;;;;8.67;4.00;;;;;;;-145.69;100.00;52626.59;5073908;28;20657;-75
2023/05/12 02:47:53;;;;;;;8.47;4.30;;;;;;;-145.69;100.00;52606.78;5075530;28;20246;-75
2023/05/12 02:50:20;;;;;;;8.87;4.20;;;;;;;-145.69;100.00;52602.81;5075364;28;20562;-74
2023/05/12 02:52:51;;;;;;;7.77;3.90;;;;;;;-145.69;100.00;52596.88;5073013;28;20657;-75
2023/05/12 02:55:21;;;;;;;10.10;4.60;;;;;;;-145.69;100.00;52626.59;5055974;28;20287;-75
2023/05/12 02:57:48;;;;;;;8.03;4.07;;;;;;;-145.69;100.00;52614.72;5075194;28;20222;-75
2023/05/12 03:00:15;;;;;;;9.73;4.57;;;;;;;-145.69;100.00;52588.97;5075728;28;20611;-75
2023/05/12 03:02:41;;;;;;;6.20;3.90;;;;;;;-145.69;100.00;52586.97;5075632;28;20198;-75
2023/05/12 03:05:09;;;;;;;8.60;4.77;;;;;;;-145.69;100.00;52551.31;5075475;28;20203;-75
2023/05/12 03:07:35;;;;;;;7.63;4.27;;;;;;;-145.69;100.00;52539.44;5072502;28;20691;-75
2023/05/12 03:10:05;;;;;;;6.37;3.80;;;;;;;-145.69;100.00;52581.03;5055561;28;20204;-75
2023/05/12 03:12:36;;;;;;;6.23;3.53;;;;;;;-145.69;100.00;52594.91;5055321;28;20227;-75
2023/05/12 03:15:03;;;;;;;6.17;2.80;;;;;;;-145.69;100.00;52618.66;5062910;28;20214;-75
2023/05/12 03:17:29;;;;;;;5.60;3.43;;;;;;;-145.69;100.00;52614.72;5075235;28;20218;-75
2023/05/12 03:19:56;;;;;;;4.37;2.97;;;;;;;-145.69;100.00;52602.81;5070170;28;20215;-75
2023/05/12 03:22:22;;;;;;;6.17;3.23;;;;;;;-145.69;100.00;52577.06;5055314;28;20199;-75
2023/05/12 03:24:49;;;;;;;7.30;4.37;;;;;;;-145.69;100.00;52610.75;5074619;28;20198;-75
2023/05/12 03:27:18;;;;;;;8.60;5.00;;;;;;;-145.69;100.00;52565.19;5075125;28;20205;-75
2023/05/12 03:29:46;;;;;;;10.10;4.67;;;;;;;-145.69;100.00;52533.50;5075045;28;20230;-75
2023/05/12 03:32:17;;;;;;;9.50;4.40;;;;;;;-145.69;100.00;52604.81;5067696;28;20200;-75
2023/05/12 03:34:46;;;;;;;10.77;5.37;;;;;;;-145.69;100.00;52594.91;5054977;28;20294;-76
2023/05/12 03:37:16;;;;;;;5.63;3.43;;;;;;;-145.69;100.00;52602.81;5054858;28;20536;-75
2023/05/12 03:39:45;;;;;;;6.43;3.30;;;;;;;-145.69;100.00;52602.81;5054846;28;20223;-75
2023/05/12 03:42:11;;;;;;;5.60;3.10;;;;;;;-145.69;100.00;52571.13;5054804;28;20206;-75
2023/05/12 03:44:39;;;;;;;6.10;3.13;;;;;;;-145.69;100.00;52626.59;5060901;28;20237;-76
2023/05/12 03:47:07;;;;;;;6.43;3.43;;;;;;;-145.69;100.00;52598.84;5066594;28;20231;-75
2023/05/12 03:49:37;;;;;;;7.73;3.53;;;;;;;-145.69;100.00;52583.00;5074534;28;20673;-75
2023/05/12 03:52:04;;;;;;;5.83;3.23;;;;;;;-145.69;100.00;52594.91;5060163;28;20850;-76
2023/05/12 03:54:34;;;;;;;6.20;2.80;;;;;;;-145.69;100.00;52614.72;5038215;28;20195;-75
2023/05/12 03:57:03;;;;;;;5.23;3.20;;;;;;;-145.69;100.00;52592.91;5034679;28;20200;-76
2023/05/12 03:59:36;;;;;;;4.93;3.33;;;;;;;-145.69;100.00;52573.13;5034256;28;20227;-75
2023/05/12 04:02:06;;;;;;;5.07;3.20;;;;;;;-145.69;100.00;52559.25;5059804;28;20657;-76
2023/05/12 04:04:32;;;;;;;7.53;3.20;;;;;;;-145.69;100.00;52600.84;5074561;28;20336;-76
2023/05/12 04:07:02;;;;;;;10.70;3.57;;;;;;;-145.69;100.00;52579.06;5074230;28;20209;-76
2023/05/12 04:09:30;;;;;;;6.90;2.93;;;;;;;-145.69;100.00;52596.88;5069114;28;20270;-76
2023/05/12 04:11:57;;;;;;;7.00;3.73;;;;;;;-145.69;100.00;52586.97;5054081;28;20257;-75
2023/05/12 04:14:24;;;;;;;8.90;3.13;;;;;;;-145.69;100.00;52590.94;5054077;28;20711;-75
2023/05/12 04:16:50;;;;;;;6.10;2.83;;;;;;;-145.69;100.00;52583.00;5069447;28;20191;-75
2023/05/12 04:19:18;;;;;;;7.60;2.70;;;;;;;-145.69;100.00;52598.84;5040282;28;20223;-75
2023/05/12 04:21:45;;;;;;;5.13;2.90;;;;;;;-145.69;100.00;52555.28;5074021;28;20206;-75
2023/05/12 04:24:11;;;;;;;8.27;3.00;;;;;;;-145.69;100.00;52583.00;5073277;28;20207;-75
2023/05/12 04:26:38;;;;;;;10.37;4.30;;;;;;;-145.69;100.00;52563.22;5073811;28;20202;-75
2023/05/12 04:29:07;;;;;;;12.07;4.50;;;;;;;-145.69;100.00;52561.22;5074055;28;20198;-76
2023/05/12 04:31:36;;;;;;;11.30;5.43;;;;;;;-145.69;100.00;52577.06;5067850;28;20290;-75
2023/05/12 04:34:03;;;;;;;26.53;9.60;;;;;;;-145.69;100.00;52598.84;5053883;28;20200;-75
2023/05/12 04:36:32;;;;;;;24.03;8.70;;;;;;;-145.69;100.00;52581.03;5053645;28;20242;-75
2023/05/12 04:38:59;;;;;;;31.57;9.73;;;;;;;-145.69;100.00;52559.25;5053599;28;20234;-76
2023/05/12 04:41:31;;;;;;;25.70;8.83;;;;;;;-145.69;100.00;52575.09;5053506;28;20207;-76
2023/05/12 04:43:59;;;;;;;18.47;7.43;;;;;;;-145.69;100.00;52579.06;5061670;28;20285;-76
2023/05/12 04:46:27;;;;;;;16.37;6.20;;;;;;;-145.69;100.00;52543.41;5065150;28;20259;-76
2023/05/12 04:48:55;;;;;;;30.57;11.07;;;;;;;-145.69;100.00;52563.22;5060911;28;20191;-75
2023/05/12 04:51:21;;;;;;;32.13;10.27;;;;;;;-145.69;100.00;52590.94;5053100;28;20196;-76
2023/05/12 04:53:53;;;;;;;28.93;10.30;;;;;;;-145.69;100.00;52549.34;5053397;28;20195;-77
2023/05/12 04:56:20;;;;;;;28.40;10.17;;;;;;;-145.69;100.00;52608.75;5062979;28;20199;-76
2023/05/12 04:58:48;;;;;;;24.03;9.03;;;;;;;-145.69;100.00;52583.00;5073238;28;20222;-76
2023/05/12 05:01:15;;;;;;;22.97;9.03;;;;;;;-145.69;100.00;52561.22;5073138;28;20691;-76
2023/05/12 05:03:41;;;;;;;23.80;9.07;;;;;;;-145.69;100.00;52586.97;5073233;28;20205;-76
2023/05/12 05:06:08;;;;;;;30.43;9.73;;;;;;;-145.69;100.00;52537.47;5072841;28;20214;-77
2023/05/12 05:08:37;;;;;;;23.87;10.10;;;;;;;-145.69;100.00;52553.31;5064006;28;20206;-76
2023/05/12 05:11:06;;;;;;;26.17;10.00;;;;;;;-145.69;100.00;52569.16;5053012;28;20574;-76
2023/05/12 05:13:38;;;;;;;21.10;7.90;;;;;;;-145.69;100.00;52545.38;5053246;28;20590;-76
2023/05/12 05:16:05;;;;;;;23.00;8.33;;;;;;;-145.69;100.00;52551.31;5059995;28;20202;-76
2023/05/12 05:18:32;;;;;;;25.13;8.47;;;;;;;-145.69;100.00;52527.56;5072911;28;20305;-77
2023/05/12 05:21:05;;;;;;;20.23;8.70;;;;;;;-145.69;100.00;52551.31;5059734;28;20199;-76
2023/05/12 05:23:35;;;;;;;17.30;8.47;;;;;;;-145.69;100.00;52561.22;5053167;28;20203;-76
2023/05/12 05:26:01;;;;;;;19.63;8.90;;;;;;;-145.69;100.00;52585.00;5052661;28;20195;-76
2023/05/12 05:28:29;;;;;;;26.00;9.00;;;;;;;-145.69;100.00;52545.38;5053051;28;20203;-76
2023/05/12 05:30:58;;;;;;;19.70;8.83;;;;;;;-145.69;100.00;52577.06;5052734;28;20210;-75
2023/05/12 05:33:27;;;;;;;21.87;9.03;;;;;;;-145.69;100.00;52551.31;5065356;28;20202;-76
2023/05/12 05:35:55;;;;;;;24.30;10.87;;;;;;;-145.69;100.00;52533.50;5033079;28;20204;-76
2023/05/12 05:38:21;;;;;;;19.13;9.23;;;;;;;-145.69;100.00;52551.31;5031590;28;20746;-77
2023/05/12 05:40:51;;;;;;;24.13;9.93;;;;;;;-145.69;100.00;52523.59;5032257;28;20196;-77
2023/05/12 05:43:23;;;;;;;18.73;8.70;;;;;;;-145.69;100.00;52545.38;5035508;28;20258;-77
2023/05/12 05:45:57;;;;;;;22.47;9.63;;;;;;;-145.69;100.00;52559.25;5064833;28;20229;-77
2023/05/12 05:48:23;;;;;;;18.13;8.80;;;;;;;-145.69;100.00;52523.59;5072510;28;20624;-77
2023/05/12 05:50:51;;;;;;;18.13;8.70;;;;;;;-145.69;100.00;52545.38;5072779;28;20210;-77
2023/05/12 05:53:19;;;;;;;17.25;7.72;;;;;;;-145.69;100.00;52547.38;5072696;28;20205;-77
2023/05/12 05:55:47;;;;;;;16.20;8.27;;;;;;;-145.69;100.00;52551.31;5067002;28;20655;-78
2023/05/12 05:58:14;;;;;;;16.30;8.30;;;;;;;-145.69;100.00;52579.06;5053605;28;20662;-77
2023/05/12 06:00:46;;;;;;;15.17;8.27;;;;;;;-145.69;100.00;52519.63;5067209;28;20244;-77
2023/05/12 06:03:16;;;;;;;14.60;7.32;;;;;;;-145.69;100.00;52539.44;5076759;28;20207;-77
2023/05/12 06:05:43;;;;;;;16.88;8.02;;;;;;;-145.69;100.00;52515.69;5076720;28;20230;-77
2023/05/12 06:08:12;;;;;;;16.65;7.93;;;;;;;-145.69;100.00;52513.69;5076617;28;20199;-77
2023/05/12 06:10:47;;;;;;;16.60;8.30;;;;;;;-145.69;100.00;52523.59;5066863;28;20199;-77
2023/05/12 06:13:16;;;;;;;16.23;8.25;;;;;;;-145.69;100.00;52539.44;5059468;28;20608;-77
2023/05/12 06:15:46;;;;;;;16.23;8.13;;;;;;;-145.69;100.00;52505.78;5056572;28;20206;-77
2023/05/12 06:18:14;;;;;;;14.48;8.25;;;;;;;-145.69;100.00;52487.97;5056391;28;20199;-77
2023/05/12 06:20:41;;;;;;;15.68;8.52;;;;;;;-145.69;100.00;52495.88;5055750;28;20227;-77
2023/05/12 06:23:09;;;;;;;14.70;8.93;;;;;;;-145.69;100.00;52537.47;5073723;28;20227;-77
2023/05/12 06:25:40;;;;;;;15.65;8.40;;;;;;;-145.69;100.00;52511.72;5056371;28;20231;-78
2023/05/12 06:28:09;;;;;;;15.48;8.68;;;;;;;-145.69;100.00;52491.91;5056179;28;20213;-77
2023/05/12 06:30:39;;;;;;;15.20;7.40;;;;;;;-145.69;100.00;52460.22;5056143;28;20207;-77
2023/05/12 06:33:07;;;;;;;11.10;6.65;;;;;;;-145.69;100.00;52489.94;5056137;28;20206;-78
2023/05/12 06:35:42;;;;;;;12.85;7.28;;;;;;;-145.69;100.00;52491.91;5058544;28;20199;-77
2023/05/12 06:38:10;;;;;;;12.15;6.68;;;;;;;-145.69;100.00;52480.03;5075892;28;20311;-77
2023/05/12 06:40:38;;;;;;;9.45;4.97;;;;;;;-145.69;100.00;52499.84;5063810;28;20223;-77
2023/05/12 06:43:05;;;;;;;12.00;6.07;;;;;;;-145.69;100.00;52458.25;5059359;28;20187;-78
2023/05/12 06:45:31;;;;;;;9.73;5.47;;;;;;;-145.69;100.00;52497.84;5075632;28;20198;-77
2023/05/12 06:47:58;;;;;;;8.23;5.40;;;;;;;-145.69;100.00;52487.97;5073771;28;20914;-78
2023/05/12 06:50:24;;;;;;;7.05;3.97;;;;;;;-145.69;100.00;52472.13;5075129;28;20597;-77
2023/05/12 06:52:52;;;;;;;11.55;5.00;;;;;;;-145.69;100.00;52466.16;5075600;28;20284;-77
2023/05/12 06:55:19;;;;;;;9.77;4.30;;;;;;;-145.69;100.00;52472.13;5075727;28;20199;-77
2023/05/12 06:57:45;;;;;;;6.15;3.97;;;;;;;-145.69;100.00;52482.00;5075637;28;20206;-77
2023/05/12 07:00:13;;;;;;;6.40;3.88;;;;;;;-145.69;100.00;52452.31;5071849;28;20305;-78
2023/05/12 07:02:42;;;;;;;6.57;4.15;;;;;;;-145.69;100.00;52480.03;5054986;28;20286;-77
2023/05/12 07:05:09;;;;;;;6.53;3.88;;;;;;;-145.69;100.00;52462.22;5055603;28;20199;-77
2023/05/12 07:07:41;;;;;;;7.63;4.50;;;;;;;-145.69;100.00;52480.03;5055355;28;20203;-78
2023/05/12 07:10:11;;;;;;;7.10;4.50;;;;;;;-145.69;100.00;52487.97;5054970;28;20207;-77
2023/05/12 07:12:38;;;;;;;10.50;5.85;;;;;;;-145.69;100.00;52462.22;5063085;28;20237;-77
2023/05/12 07:15:07;;;;;;;10.85;6.90;;;;;;;-145.69;100.00;52434.47;5055289;28;20290;-77
2023/05/12 07:17:37;;;;;;;10.15;5.55;;;;;;;-145.69;100.00;52454.28;5055551;28;20286;-77
2023/05/12 07:22:46;;;;;;;11.57;4.88;;;;;;;-145.69;100.00;52501.81;5054007;28;20253;-76
2023/05/12 07:25:14;;;;;;;7.63;4.85;;;;;;;-145.69;100.00;52450.31;5056225;28;20261;-77
2023/05/12 07:27:46;;;;;;;7.55;4.22;;;;;;;-145.69;100.00;52476.06;5054619;28;20658;-76
2023/05/12 07:30:18;;;;;;;7.03;4.10;;;;;;;-145.69;100.00;52480.03;5054847;28;20203;-76
2023/05/12 07:32:45;;;;;;;6.35;3.45;;;;;;;-145.69;100.00;52480.03;5055114;28;20306;-76
2023/05/12 07:35:13;;;;;;;4.45;3.28;;;;;;;-145.69;100.00;52480.03;5055103;28;20195;-77
2023/05/12 07:40:24;;;;;;;5.20;3.15;;;;;;;-145.69;100.00;52466.16;5054516;28;20241;-77
2023/05/12 07:42:51;;;;;;;4.15;2.65;;;;;;;-145.69;100.00;52452.31;5054743;28;20222;-78
2023/05/12 07:45:21;;;;;;;5.95;2.72;;;;;;;-145.69;100.00;52474.09;5054606;28;20536;-78
2023/05/12 07:47:56;;;;;;;4.90;2.70;;;;;;;-145.69;100.00;52468.16;5055609;28;20226;-77
2023/05/12 07:50:31;;;;;;;5.35;2.47;;;;;;;-145.69;100.00;52460.22;5070113;28;20191;-77
2023/05/12 07:52:57;;;;;;;5.18;3.13;;;;;;;-145.69;100.00;52468.16;5044219;28;20212;-78
2023/05/12 07:55:25;;;;;;;6.03;3.63;;;;;;;-145.69;100.00;52464.19;5034826;28;20208;-76
2023/05/12 07:57:54;;;;;;;10.43;5.53;;;;;;;-145.69;100.00;52464.19;5034706;28;20197;-76
2023/05/12 08:00:21;;;;;;;9.75;5.18;;;;;;;-145.69;100.00;52472.13;5039885;28;20223;-77
2023/05/12 08:02:48;;;;;;;11.23;6.45;;;;;;;-145.69;100.00;52468.16;5067359;28;20187;-77
2023/05/12 08:05:14;;;;;;;10.60;5.20;;;;;;;-145.69;100.00;52464.19;5071558;28;20191;-77
2023/05/12 08:07:42;;;;;;;11.30;5.28;;;;;;;-145.69;100.00;52468.16;5062462;28;20195;-77
2023/05/12 08:10:10;;;;;;;7.68;4.60;;;;;;;-145.69;100.00;52458.25;5054356;28;20207;-78
2023/05/12 08:12:39;;;;;;;9.18;4.80;;;;;;;-145.69;100.00;52468.16;5072240;28;20205;-76
2023/05/12 08:15:06;;;;;;;6.88;4.38;;;;;;;-145.69;100.00;52436.47;5071029;28;20657;-76
2023/05/12 08:17:32;;;;;;;10.68;5.45;;;;;;;-145.69;100.00;52424.59;5071254;28;20545;-76
2023/05/12 08:19:59;;;;;;;10.13;5.32;;;;;;;-145.69;100.00;52434.47;5073667;28;20559;-77
2023/05/12 08:22:28;;;;;;;7.55;3.33;;;;;;;-145.69;100.00;52446.38;5058149;28;20286;-75
2023/05/12 08:24:54;;;;;;;4.00;2.85;;;;;;;-145.69;100.00;52448.34;5054037;28;20273;-75
2023/05/12 08:27:21;;;;;;;4.00;2.65;;;;;;;-145.69;96.58;52442.41;5039786;28;20204;-75
2023/05/12 08:29:49;;;;;;;6.72;2.60;;;;;;;-145.69;97.84;52452.31;5040738;28;20212;-76
2023/05/12 08:32:18;;;;;;;6.40;4.45;;;;;;;-145.69;95.86;52422.59;5044826;28;20199;-77
2023/05/12 08:34:47;;;;;;;5.65;3.88;;;;;;;-145.69;94.54;52406.75;5053784;28;20586;-77
2023/05/12 08:37:14;;;;;;;5.90;3.63;;;;;;;-145.69;95.97;52450.31;5053523;28;20575;-76
2023/05/12 08:39:43;;;;;;;6.57;3.80;;;;;;;-145.69;96.61;52430.53;5053629;28;20231;-76
2023/05/12 08:42:20;;;;;;;6.53;3.60;;;;;;;-145.69;94.13;52418.63;5053861;28;20286;-77
2023/05/12 08:44:50;;;;;;;5.78;3.03;;;;;;;-145.69;91.64;52420.63;5053431;28;20222;-76
2023/05/12 08:47:18;;;;;;;5.65;3.22;;;;;;;-145.69;94.86;52420.63;5039113;28;20219;-75
2023/05/12 08:49:48;;;;;;;6.82;3.53;;;;;;;-145.69;88.91;52432.50;5039095;28;20197;-79
2023/05/12 08:52:20;;;;;;;8.18;5.20;;;;;;;-145.69;92.16;52416.66;5033408;28;20203;-80
2023/05/12 08:54:48;;;;;;;8.65;4.85;;;;;;;-145.69;93.96;52426.56;5049688;28;20454;-87
2023/05/12 08:57:18;;;;;;;8.52;3.90;;;;;;;-145.69;95.03;52428.53;5053704;28;20204;-81
2023/05/12 08:59:44;;;;;;;6.18;3.80;;;;;;;-145.69;100.00;52464.19;5070512;28;20252;-79
2023/05/12 09:02:14;;;;;;;5.28;3.45;;;;;;;-145.69;100.00;52446.38;5067115;28;20215;-79
2023/05/12 09:04:43;;;;;;;4.22;2.40;;;;;;;-145.69;99.15;52456.28;5061274;28;20197;-79
2023/05/12 09:07:10;;;;;;;5.97;3.13;;;;;;;-145.69;100.00;52464.19;5073404;28;20296;-80
2023/05/12 09:09:42;;;;;;;6.55;2.47;;;;;;;-145.69;99.15;52462.22;5072943;28;20205;-78
2023/05/12 09:12:12;;;;;;;3.65;2.05;;;;;;;-145.69;92.47;52424.59;5054655;28;20200;-81
2023/05/12 09:14:46;;;;;;;4.30;2.70;;;;;;;-145.69;98.24;52404.78;5053132;28;20245;-80
2023/05/12 09:17:14;;;;;;;3.08;2.33;;;;;;;-145.69;97.79;52448.34;5052685;28;20199;-79
2023/05/12 09:19:43;;;;;;;4.47;2.60;;;;;;;-145.69;97.71;52428.53;5052761;28;20200;-82
2023/05/12 09:22:13;;;;;;;3.58;2.55;;;;;;;-145.69;100.00;52432.50;5053063;28;20199;-81
2023/05/12 09:24:40;;;;;;;4.63;2.58;;;;;;;-145.69;100.00;52412.69;5052847;28;20554;-81
2023/05/12 09:27:07;;;;;;;6.72;2.70;;;;;;;-145.69;100.00;52448.34;5053066;28;20206;-82
2023/05/12 09:29:47;;;;;;;4.53;2.97;;;;;;;-145.69;100.00;52438.44;5053183;28;20202;-83
2023/05/12 09:32:15;;;;;;;3.88;2.55;;;;;;;-145.69;100.00;52430.53;5052980;28;20200;-84
2023/05/12 09:34:43;;;;;;;3.45;2.22;;;;;;;-145.69;100.00;52426.56;5053499;28;20195;-85
2023/05/12 09:37:10;;;;;;;10.00;7.90;;;;;;;-145.69;100.00;52420.63;5052995;28;20216;-84
2023/05/12 09:39:38;;;;;;;3.83;2.75;;;;;;;-145.69;100.00;52452.31;5053205;28;20215;-83
2023/05/12 09:42:13;;;;;;;5.32;3.22;;;;;;;-145.69;98.41;52406.75;5053305;28;20672;-84
2023/05/12 09:44:40;;;;;;;6.75;4.97;;;;;;;-145.69;99.50;52440.44;5052761;28;20233;-84
2023/05/12 09:47:14;;;;;;;19.40;4.30;;;;;;;-145.69;96.55;52408.75;5052187;28;20556;-76
2023/05/12 09:49:47;;;;;;;6.60;2.67;;;;;;;-145.69;93.14;52430.53;5052695;28;20199;-77
2023/05/12 09:52:14;;;;;;;5.00;2.33;;;;;;;-145.69;95.05;52416.66;5052808;28;20558;-82
2023/05/12 09:54:51;;;;;;;3.97;2.10;;;;;;;-145.69;93.81;52404.78;5052583;28;20210;-79
2023/05/12 09:57:22;;;;;;;2.72;2.05;;;;;;;-145.69;91.83;52412.69;5034808;28;20204;-80
2023/05/12 09:59:50;;;;;;;5.50;2.55;;;;;;;-145.69;89.38;52373.09;5065134;28;20202;-81
2023/05/12 10:02:30;;;;;;;3.05;1.98;;;;;;;-145.69;87.38;52408.75;5070343;28;20206;-80
2023/05/12 10:05:02;;;;;;;6.95;2.42;;;;;;;-145.69;86.64;52406.75;5061457;28;20187;-83
2023/05/12 10:07:30;;;;;;;3.70;2.10;;;;;;;-145.69;88.77;52392.91;5071960;28;20657;-80
2023/05/12 10:09:59;;;;;;;3.13;1.90;;;;;;;-145.69;91.88;52426.56;5072549;28;20199;-79
2023/05/12 10:12:26;;;;;;;4.28;2.33;;;;;;;-145.69;100.00;52440.44;5071388;28;20446;-80
2023/05/12 10:14:53;;;;;;;3.45;1.98;;;;;;;-145.69;100.00;52448.34;5071519;28;20286;-81
2023/05/12 10:17:21;;;;;;;2.58;2.00;;;;;;;-145.69;86.39;52412.69;5072497;28;20565;-85
2023/05/12 10:19:50;;;;;;;3.10;1.50;;;;;;;-145.69;88.75;52408.75;5071238;28;20653;-80
2023/05/12 10:22:22;;;;;;;2.50;1.42;;;;;;;-145.69;93.98;52424.59;5072175;28;20203;-80
2023/05/12 10:24:52;;;;;;;1.88;1.40;;;;;;;-145.69;90.72;52424.59;5068763;28;20246;-81
2023/05/12 10:27:25;;;;;;;3.72;1.40;;;;;;;-145.69;89.48;52430.53;5052022;28;20199;-80
2023/05/12 10:29:52;;;;;;;3.97;1.70;;;;;;;-145.69;93.80;52402.78;5052480;28;20586;-81
2023/05/12 10:32:21;;;;;;;2.22;1.35;;;;;;;-145.69;88.89;52410.72;5051549;28;20196;-82
2023/05/12 10:34:50;;;;;;;3.42;1.55;;;;;;;-145.69;93.26;52448.34;5051267;28;20204;-82
2023/05/12 10:37:18;;;;;;;1.98;1.40;;;;;;;-145.69;92.26;52396.84;5054609;28;20196;-83
2023/05/12 10:39:49;;;;;;;3.33;1.60;;;;;;;-145.69;92.39;52416.66;5061865;28;20536;-83
2023/05/12 10:42:24;;;;;;;2.33;1.83;;;;;;;-145.69;93.73;52416.66;5052716;28;20219;-84
2023/05/12 10:44:51;;;;;;;2.88;1.80;;;;;;;-145.69;95.13;52416.66;5073633;28;20198;-78
2023/05/12 10:47:25;;;;;;;3.85;2.00;;;;;;;-145.69;97.67;52454.28;5075298;28;20241;-77
2023/05/12 10:49:59;;;;;;;3.30;1.98;;;;;;;-145.69;100.00;52460.22;5075751;28;20202;-77
2023/05/12 10:52:27;;;;;;;4.35;1.75;;;;;;;-145.69;100.00;52464.19;5075900;28;20203;-77
2023/05/12 10:55:10;;;;;;;2.75;1.52;;;;;;;-145.69;100.00;52472.13;5075604;28;20657;-76
2023/05/12 10:57:48;;;;;;;4.53;1.80;;;;;;;-145.69;100.00;52476.06;5062261;28;20253;-75
2023/05/12 11:00:15;;;;;;;2.65;1.80;;;;;;;-145.69;100.00;52470.13;5054987;28;20203;-77
2023/05/12 11:02:50;;;;;;;3.28;1.77;;;;;;;-145.69;100.00;52444.38;5054516;28;20210;-76
2023/05/12 11:05:16;;;;;;;4.85;1.70;;;;;;;-145.69;100.00;52468.16;5052998;28;20661;-76
2023/05/12 11:07:50;;;;;;;3.70;1.67;;;;;;;-145.69;100.00;52462.22;5064476;28;20202;-76
2023/05/12 11:10:17;;;;;;;2.33;1.63;;;;;;;-145.69;100.00;52424.59;5073811;28;20647;-76
2023/05/12 11:12:44;;;;;;;3.22;1.92;;;;;;;-145.69;100.00;52440.44;5059933;28;20195;-76
2023/05/12 11:15:12;;;;;;;2.22;1.80;;;;;;;-145.69;100.00;52448.34;5045228;28;20195;-75
2023/05/12 11:17:39;;;;;;;3.17;1.88;;;;;;;-145.69;100.00;52438.44;5055185;28;20583;-75